Time;durP1;ratioP1;P1;durP2;ratioP2;P2;SDS_P1;SDS_P2;PMS_P1;PMS_P2;Temp;Humidity;BMP_temperature;BMP_pressure;BME280_temperature;BME280_humidity;BME280_pressure;Samples;Min_cycle;Max_cycle;Signal;HPM_P1;HPM_P2
2021/06/03 00:00:21;;;;;;;2.43;2.20;;;;;;;17.28;65.91;101704.09;5033337;28;20825;-69
2021/06/03 00:02:48;;;;;;;2.50;2.30;;;;;;;17.29;65.39;101701.03;5033584;28;20497;-69
2021/06/03 00:05:15;;;;;;;4.10;2.20;;;;;;;17.34;65.08;101703.59;5033630;28;20439;-70
2021/06/03 00:07:42;;;;;;;2.17;1.97;;;;;;;17.37;64.85;101702.97;5033553;28;20491;-70
2021/06/03 00:10:09;;;;;;;1.70;1.50;;;;;;;17.44;65.10;101698.94;5033315;28;20470;-69
2021/06/03 00:12:36;;;;;;;3.97;2.50;;;;;;;17.40;65.33;101707.84;5033507;28;20450;-69
2021/06/03 00:15:03;;;;;;;2.53;2.13;;;;;;;17.38;64.93;101699.09;5033430;28;20482;-69
2021/06/03 00:17:29;;;;;;;3.40;2.50;;;;;;;17.37;64.72;101692.03;5033402;28;20439;-70
2021/06/03 00:19:55;;;;;;;5.10;2.87;;;;;;;17.37;64.72;101694.75;5033312;28;20466;-69
2021/06/03 00:22:21;;;;;;;2.03;1.80;;;;;;;17.39;64.16;101697.19;5033574;28;20446;-69
2021/06/03 00:24:48;;;;;;;4.63;2.80;;;;;;;17.38;64.08;101693.63;5033293;28;20439;-69
2021/06/03 00:27:14;;;;;;;2.90;2.40;;;;;;;17.32;63.76;101697.66;5033012;28;20947;-69
2021/06/03 00:29:40;;;;;;;4.00;2.73;;;;;;;17.33;63.55;101699.25;5032922;28;20528;-69
2021/06/03 00:32:07;;;;;;;2.57;2.37;;;;;;;17.37;63.05;101697.50;5032859;28;20451;-69
2021/06/03 00:34:33;;;;;;;2.60;2.23;;;;;;;17.41;63.03;101703.16;5033109;28;20482;-69
2021/06/03 00:36:59;;;;;;;3.30;2.07;;;;;;;17.39;62.79;101699.91;5033193;28;20443;-70
2021/06/03 00:39:25;;;;;;;4.00;2.10;;;;;;;17.42;63.61;101693.81;5032798;28;20459;-70
2021/06/03 00:41:53;;;;;;;2.37;2.10;;;;;;;17.39;63.49;101695.22;5033134;28;20470;-70
2021/06/03 00:44:19;;;;;;;3.10;1.83;;;;;;;17.42;63.12;101695.75;5032852;28;20944;-69
2021/06/03 00:46:45;;;;;;;3.53;2.13;;;;;;;17.42;63.39;101693.00;5033101;28;20541;-69
2021/06/03 00:49:10;;;;;;;4.43;1.97;;;;;;;17.40;63.42;101696.06;5032858;28;20463;-70
2021/06/03 00:51:36;;;;;;;2.47;2.20;;;;;;;17.42;63.81;101698.47;5033095;28;20427;-70
2021/06/03 00:54:03;;;;;;;3.90;2.60;;;;;;;17.33;63.16;101699.25;5032962;28;20479;-70
2021/06/03 00:56:29;;;;;;;2.50;2.30;;;;;;;17.29;63.65;101695.56;5032998;28;20805;-69
2021/06/03 00:58:56;;;;;;;5.57;2.60;;;;;;;17.23;63.09;101694.09;5032602;28;20932;-70
2021/06/03 01:01:22;;;;;;;4.40;2.90;;;;;;;17.19;61.55;101698.59;5032926;28;20458;-70
2021/06/03 01:03:48;;;;;;;5.07;3.07;;;;;;;17.09;61.63;101705.19;5032610;28;20443;-69
2021/06/03 01:06:14;;;;;;;3.00;1.80;;;;;;;16.98;61.58;101703.03;5032914;28;20443;-69
2021/06/03 01:08:43;;;;;;;3.23;2.10;;;;;;;17.00;62.72;101703.50;5032892;28;20458;-70
2021/06/03 01:11:14;;;;;;;6.30;2.80;;;;;;;16.93;63.50;101711.41;5032775;28;20455;-70
2021/06/03 01:13:47;;;;;;;1.77;1.67;;;;;;;16.93;63.91;101714.13;5038863;28;20920;-70
2021/06/03 01:16:16;;;;;;;2.17;1.83;;;;;;;16.93;64.89;101711.41;5032963;28;20423;-70
2021/06/03 01:18:43;;;;;;;4.37;2.57;;;;;;;16.88;64.68;101713.16;5032513;28;20948;-70
2021/06/03 01:21:13;;;;;;;2.10;1.87;;;;;;;16.89;65.16;101714.75;5033693;28;20984;-71
2021/06/03 01:23:45;;;;;;;3.40;2.23;;;;;;;16.87;64.93;101717.00;5036230;28;20462;-70
2021/06/03 01:26:13;;;;;;;4.83;2.57;;;;;;;16.84;64.67;101723.09;5036522;28;20795;-70
2021/06/03 01:28:41;;;;;;;3.20;1.93;;;;;;;16.84;65.63;101717.63;5036541;28;20451;-71
2021/06/03 01:31:07;;;;;;;2.40;2.10;;;;;;;16.83;65.32;101716.03;5036380;28;20463;-70
2021/06/03 01:33:41;;;;;;;2.97;2.50;;;;;;;16.78;64.72;101721.63;5036460;28;20447;-70
2021/06/03 01:36:11;;;;;;;2.73;2.27;;;;;;;16.75;65.25;101725.00;5036421;28;20526;-70
2021/06/03 01:38:40;;;;;;;2.07;1.83;;;;;;;16.70;65.89;101721.56;5036055;28;20982;-70
2021/06/03 01:41:09;;;;;;;2.10;1.90;;;;;;;16.70;66.33;101733.31;5035910;28;20987;-70
2021/06/03 01:43:39;;;;;;;2.80;2.07;;;;;;;16.64;66.01;101737.28;5036254;28;20435;-70
2021/06/03 01:46:06;;;;;;;4.03;2.40;;;;;;;16.60;65.85;101733.56;5036300;28;20431;-70
2021/06/03 01:48:33;;;;;;;3.07;2.23;;;;;;;16.59;66.50;101740.16;5036153;28;20438;-70
2021/06/03 01:51:03;;;;;;;1.87;1.57;;;;;;;16.57;65.97;101734.22;5035712;28;20487;-70
2021/06/03 01:53:30;;;;;;;3.77;2.33;;;;;;;16.56;67.07;101738.88;5036067;28;20439;-70
2021/06/03 01:56:01;;;;;;;5.50;2.67;;;;;;;16.42;66.71;101726.38;5036103;28;20482;-70
2021/06/03 01:58:28;;;;;;;2.60;1.80;;;;;;;16.42;67.09;101729.91;5035712;28;20924;-70
2021/06/03 02:00:56;;;;;;;3.17;2.67;;;;;;;16.37;66.79;101733.59;5035823;28;20513;-70
2021/06/03 02:03:22;;;;;;;2.43;1.57;;;;;;;16.38;66.20;101724.28;5035909;28;20435;-70
2021/06/03 02:05:48;;;;;;;5.43;1.90;;;;;;;16.35;66.41;101730.38;5035846;28;20448;-70
2021/06/03 02:08:14;;;;;;;6.77;2.63;;;;;;;16.38;66.62;101732.50;5035780;28;20787;-70
2021/06/03 02:10:41;;;;;;;3.50;2.13;;;;;;;16.34;66.36;101731.50;5035677;28;20529;-70
2021/06/03 02:13:11;;;;;;;3.37;2.37;;;;;;;16.31;67.31;101728.56;5035367;28;20517;-70
2021/06/03 02:15:42;;;;;;;3.80;2.43;;;;;;;16.30;66.72;101727.78;5035677;28;20474;-70
2021/06/03 02:18:13;;;;;;;2.77;2.07;;;;;;;16.24;67.34;101729.00;5035667;28;20428;-70
2021/06/03 02:20:42;;;;;;;2.90;2.17;;;;;;;16.16;64.84;101735.25;5035479;28;20459;-70
2021/06/03 02:23:09;;;;;;;3.50;2.10;;;;;;;16.10;63.88;101740.00;5035224;28;20999;-70
2021/06/03 02:25:36;;;;;;;4.87;2.10;;;;;;;16.02;63.93;101729.78;5035142;28;20447;-70
2021/06/03 02:28:04;;;;;;;2.00;1.73;;;;;;;16.04;64.01;101743.19;5035481;28;20470;-70
2021/06/03 02:30:32;;;;;;;3.10;2.80;;;;;;;15.99;64.09;101730.44;5035233;28;20462;-70
2021/06/03 02:32:59;;;;;;;3.27;2.47;;;;;;;15.95;64.85;101734.91;5035312;28;20443;-70
2021/06/03 02:35:27;;;;;;;3.90;2.20;;;;;;;15.98;64.82;101733.47;5035172;28;20996;-70
2021/06/03 02:37:53;;;;;;;12.30;2.97;;;;;;;16.04;65.95;101729.50;5035255;28;20447;-69
2021/06/03 02:40:22;;;;;;;3.07;1.90;;;;;;;16.00;66.54;101732.03;5035135;28;20467;-69
2021/06/03 02:42:49;;;;;;;4.50;3.13;;;;;;;16.01;65.07;101732.84;5034897;28;20948;-70
2021/06/03 02:45:18;;;;;;;2.77;2.30;;;;;;;15.97;64.16;101731.84;5035097;28;20814;-69
2021/06/03 02:47:44;;;;;;;4.70;3.30;;;;;;;15.94;63.55;101727.00;5035046;28;20498;-70
2021/06/03 02:50:13;;;;;;;3.63;2.20;;;;;;;15.93;64.77;101728.91;5034716;28;20856;-70
2021/06/03 02:52:41;;;;;;;2.70;2.50;;;;;;;15.93;65.72;101739.84;5034966;28;20443;-69
2021/06/03 02:55:18;;;;;;;5.27;2.33;;;;;;;15.97;66.00;101732.66;5034542;28;21004;-69
2021/06/03 02:57:44;;;;;;;3.53;2.40;;;;;;;15.98;66.22;101741.66;5034837;28;20442;-69
2021/06/03 03:00:14;;;;;;;9.20;2.60;;;;;;;16.00;66.35;101742.19;5034752;28;20870;-69
2021/06/03 03:02:40;;;;;;;3.03;2.03;;;;;;;15.98;66.71;101744.38;5034745;28;20450;-70
2021/06/03 03:05:07;;;;;;;3.57;2.30;;;;;;;15.96;66.44;101741.97;5041249;28;20471;-69
2021/06/03 03:07:34;;;;;;;3.30;2.50;;;;;;;15.97;67.39;101742.78;5034373;28;20439;-70
2021/06/03 03:10:04;;;;;;;2.50;2.03;;;;;;;15.96;67.04;101746.63;5034549;28;20490;-69
2021/06/03 03:12:30;;;;;;;4.20;2.40;;;;;;;15.94;67.02;101738.75;5034525;28;20447;-68
2021/06/03 03:14:56;;;;;;;7.80;2.23;;;;;;;15.89;67.44;101739.69;5034512;28;21018;-71
2021/06/03 03:17:22;;;;;;;3.77;2.20;;;;;;;15.85;67.54;101746.06;5034459;28;20892;-71
2021/06/03 03:19:48;;;;;;;3.57;2.60;;;;;;;15.85;68.22;101746.88;5034340;28;20979;-71
2021/06/03 03:22:13;;;;;;;2.30;2.10;;;;;;;15.84;68.53;101739.78;5034345;28;20446;-71
2021/06/03 03:24:39;;;;;;;4.53;2.93;;;;;;;15.83;68.18;101743.63;5034295;28;20447;-72
2021/06/03 03:27:07;;;;;;;2.50;2.27;;;;;;;15.81;68.19;101745.88;5034284;28;20467;-72
2021/06/03 03:29:33;;;;;;;2.33;1.77;;;;;;;15.81;68.44;101745.88;5033787;28;20479;-71
2021/06/03 03:31:59;;;;;;;5.17;2.20;;;;;;;15.80;68.11;101741.50;5034175;28;20443;-71
2021/06/03 03:34:25;;;;;;;3.73;2.50;;;;;;;15.79;68.51;101742.63;5034085;28;20859;-71
2021/06/03 03:36:52;;;;;;;2.73;2.20;;;;;;;15.81;67.81;101745.06;5034124;28;20435;-71
2021/06/03 03:39:18;;;;;;;3.20;2.20;;;;;;;15.79;67.92;101748.09;5035576;28;20503;-71
2021/06/03 03:41:44;;;;;;;2.43;1.90;;;;;;;15.81;65.02;101745.88;5034022;28;20447;-72
2021/06/03 03:44:11;;;;;;;2.77;2.30;;;;;;;15.79;64.40;101750.81;5033566;28;20963;-71
2021/06/03 03:46:37;;;;;;;4.07;2.10;;;;;;;15.76;64.36;101754.19;5033986;28;20469;-72
2021/06/03 03:49:03;;;;;;;1.50;1.40;;;;;;;15.74;63.97;101752.88;5033683;28;20443;-72
2021/06/03 03:51:29;;;;;;;3.20;2.13;;;;;;;15.75;64.87;101752.56;5033903;28;20505;-71
2021/06/03 03:53:55;;;;;;;3.83;2.50;;;;;;;15.76;65.79;101753.34;5033712;28;20470;-71
2021/06/03 03:56:21;;;;;;;4.63;2.07;;;;;;;15.76;66.29;101748.72;5033805;28;20449;-72
2021/06/03 03:58:48;;;;;;;2.87;2.17;;;;;;;15.82;67.18;101752.94;5033456;28;20955;-72
2021/06/03 04:01:17;;;;;;;2.90;2.30;;;;;;;15.87;67.03;101752.84;5033621;28;20470;-71
2021/06/03 04:03:43;;;;;;;5.20;2.63;;;;;;;15.94;66.16;101752.44;5033274;28;20455;-71
2021/06/03 04:06:10;;;;;;;3.83;2.13;;;;;;;15.98;66.31;101758.06;5033250;28;20841;-71
2021/06/03 04:08:36;;;;;;;3.03;2.07;;;;;;;16.03;66.94;101758.78;5033576;28;20443;-71
2021/06/03 04:11:03;;;;;;;3.47;2.20;;;;;;;16.12;67.05;101761.56;5033180;28;20467;-71
2021/06/03 04:13:29;;;;;;;6.37;2.63;;;;;;;16.13;66.20;101765.91;5033482;28;20490;-71
2021/06/03 04:15:56;;;;;;;3.20;2.67;;;;;;;16.17;65.98;101768.84;5033035;28;21010;-71
2021/06/03 04:18:24;;;;;;;2.67;2.10;;;;;;;16.25;65.18;101760.72;5033082;28;20827;-69
2021/06/03 04:20:50;;;;;;;2.10;1.90;;;;;;;16.34;65.50;101766.25;5033351;28;20463;-71
2021/06/03 04:23:16;;;;;;;2.77;2.53;;;;;;;16.40;65.69;101770.47;5033045;28;20959;-71
2021/06/03 04:25:42;;;;;;;2.90;2.60;;;;;;;16.42;65.58;101765.47;5033349;28;20443;-70
2021/06/03 04:28:08;;;;;;;5.40;2.20;;;;;;;16.47;65.12;101776.31;5033316;28;20982;-70
2021/06/03 04:30:35;;;;;;;2.83;1.97;;;;;;;16.57;64.86;101765.09;5033206;28;20542;-71
2021/06/03 04:33:01;;;;;;;7.40;2.70;;;;;;;16.64;64.68;101772.84;5033219;28;20451;-70
2021/06/03 04:35:29;;;;;;;4.30;2.37;;;;;;;16.71;64.79;101767.75;5032827;28;20478;-71
2021/06/03 04:37:55;;;;;;;2.03;1.63;;;;;;;16.79;64.26;101768.97;5033188;28;20435;-70
2021/06/03 04:40:24;;;;;;;3.17;2.10;;;;;;;16.81;63.43;101762.03;5032793;28;20477;-70
2021/06/03 04:42:51;;;;;;;2.90;1.70;;;;;;;16.91;63.28;101771.94;5032826;28;20952;-70
2021/06/03 04:45:19;;;;;;;3.10;2.30;;;;;;;16.99;62.91;101764.88;5033090;28;20489;-70
2021/06/03 04:47:46;;;;;;;2.90;2.17;;;;;;;17.03;63.27;101763.13;5032843;28;20438;-70
2021/06/03 04:50:13;;;;;;;4.93;2.83;;;;;;;17.06;62.40;101768.78;5032628;28;21016;-71
2021/06/03 04:52:41;;;;;;;4.37;2.73;;;;;;;17.10;62.68;101774.44;5033570;28;20497;-71
2021/06/03 04:55:10;;;;;;;2.83;2.23;;;;;;;17.15;60.80;101777.81;5038253;28;20494;-71
2021/06/03 04:57:36;;;;;;;3.00;2.37;;;;;;;17.21;61.33;101775.75;5036558;28;20928;-70
2021/06/03 05:00:07;;;;;;;4.03;2.83;;;;;;;17.20;61.50;101776.88;5036891;28;20462;-70
2021/06/03 05:02:33;;;;;;;2.73;2.53;;;;;;;17.27;61.43;101770.94;5037083;28;20434;-71
2021/06/03 05:04:59;;;;;;;2.60;2.40;;;;;;;17.34;61.37;101774.81;5036650;28;20971;-70
2021/06/03 05:07:25;;;;;;;2.03;1.83;;;;;;;17.36;61.87;101777.25;5036889;28;20443;-69
2021/06/03 05:09:52;;;;;;;2.70;2.50;;;;;;;17.43;61.69;101782.25;5036789;28;20495;-69
2021/06/03 05:12:18;;;;;;;5.40;2.40;;;;;;;17.50;61.54;101769.72;5036864;28;20500;-71
2021/06/03 05:14:44;;;;;;;3.13;2.60;;;;;;;17.57;61.91;101777.47;5036663;28;20486;-71
2021/06/03 05:17:10;;;;;;;2.57;1.97;;;;;;;17.62;61.12;101778.13;5036453;28;20952;-71
2021/06/03 05:19:36;;;;;;;7.37;2.40;;;;;;;17.63;61.18;101781.69;5036649;28;20525;-71
2021/06/03 05:22:03;;;;;;;3.13;2.03;;;;;;;17.63;60.29;101789.91;5036644;28;20447;-68
2021/06/03 05:24:28;;;;;;;3.37;2.70;;;;;;;17.68;60.48;101784.25;5036605;28;20435;-68
2021/06/03 05:26:56;;;;;;;3.23;2.70;;;;;;;17.75;60.22;101789.28;5036556;28;20439;-69
2021/06/03 05:29:22;;;;;;;2.73;2.40;;;;;;;17.84;60.99;101790.09;5036512;28;20876;-70
2021/06/03 05:31:48;;;;;;;7.00;2.20;;;;;;;17.88;60.38;101791.09;5036128;28;20446;-69
2021/06/03 05:34:15;;;;;;;5.10;2.30;;;;;;;17.96;59.34;101797.72;5036356;28;20465;-69
2021/06/03 05:36:41;;;;;;;6.27;2.80;;;;;;;17.98;59.88;101798.22;5036043;28;20491;-69
2021/06/03 05:39:08;;;;;;;3.10;2.43;;;;;;;18.00;58.65;101790.47;5035969;28;20864;-69
2021/06/03 05:41:36;;;;;;;2.73;2.37;;;;;;;18.13;59.36;101805.94;5036347;28;20447;-70
2021/06/03 05:44:04;;;;;;;3.17;2.53;;;;;;;18.20;59.34;101800.81;5036303;28;20454;-70
2021/06/03 05:46:30;;;;;;;3.30;2.50;;;;;;;18.28;58.62;101805.47;5036275;28;20443;-69
2021/06/03 05:48:56;;;;;;;6.63;2.40;;;;;;;18.36;58.36;101809.34;5035685;28;20466;-69
2021/06/03 05:51:22;;;;;;;6.40;2.87;;;;;;;18.44;58.40;101802.22;5036084;28;20470;-69
2021/06/03 05:53:48;;;;;;;3.43;2.40;;;;;;;18.51;59.39;101806.09;5036136;28;20473;-69
2021/06/03 05:56:14;;;;;;;3.90;2.00;;;;;;;18.57;59.40;101809.47;5035940;28;20478;-69
2021/06/03 05:58:40;;;;;;;3.13;2.10;;;;;;;18.62;58.57;101814.78;5035962;28;20501;-70
2021/06/03 06:01:07;;;;;;;4.83;2.73;;;;;;;18.65;57.92;101808.66;5035862;28;20474;-69
2021/06/03 06:03:38;;;;;;;3.27;2.27;;;;;;;18.73;57.75;101813.38;5035878;28;20443;-69
2021/06/03 06:08:48;;;;;;;3.00;2.20;;;;;;;18.85;56.79;101821.72;5022047;28;20449;-70
2021/06/03 06:11:14;;;;;;;2.00;1.70;;;;;;;18.93;56.43;101806.34;5035679;28;20467;-69
2021/06/03 06:13:39;;;;;;;5.40;2.80;;;;;;;19.00;56.21;101814.09;5035679;28;20455;-71
2021/06/03 06:16:07;;;;;;;2.40;1.83;;;;;;;19.11;55.95;101810.66;5035584;28;20896;-69
2021/06/03 06:18:34;;;;;;;3.13;2.80;;;;;;;19.19;56.87;101819.19;5035618;28;20439;-69
2021/06/03 06:21:00;;;;;;;2.50;2.00;;;;;;;19.25;56.75;101824.16;5035492;28;20507;-70
2021/06/03 06:23:26;;;;;;;3.80;2.40;;;;;;;19.27;54.71;101829.34;5035238;28;20505;-69
2021/06/03 06:25:52;;;;;;;3.60;2.47;;;;;;;19.37;55.29;101839.97;5035189;28;20435;-70
2021/06/03 06:28:18;;;;;;;3.70;1.97;;;;;;;19.47;55.00;101836.84;5035468;28;20513;-70
2021/06/03 06:30:44;;;;;;;5.63;3.10;;;;;;;19.56;55.16;101828.56;5035305;28;20536;-70
2021/06/03 06:33:13;;;;;;;3.00;2.13;;;;;;;19.60;54.90;101826.75;5035111;28;20823;-69
2021/06/03 06:35:39;;;;;;;6.27;2.20;;;;;;;19.70;54.98;101829.19;5034919;28;21016;-70
2021/06/03 06:38:05;;;;;;;3.20;1.83;;;;;;;19.76;54.96;101836.09;5034960;28;20439;-70
2021/06/03 06:40:31;;;;;;;3.27;2.43;;;;;;;19.84;53.54;101837.97;5035159;28;20490;-69
2021/06/03 06:42:57;;;;;;;5.60;2.40;;;;;;;19.89;53.20;101847.97;5034804;28;21007;-69
2021/06/03 06:45:26;;;;;;;3.47;2.20;;;;;;;19.91;54.08;101849.25;5041258;28;20440;-71
2021/06/03 06:47:52;;;;;;;3.60;2.57;;;;;;;19.98;53.56;101848.72;5035067;28;20446;-70
2021/06/03 06:50:21;;;;;;;2.00;1.80;;;;;;;20.03;53.16;101847.72;5034915;28;20471;-71
2021/06/03 06:52:47;;;;;;;4.03;2.33;;;;;;;20.08;53.58;101850.28;5034982;28;20498;-70
2021/06/03 06:55:13;;;;;;;5.70;2.67;;;;;;;20.12;53.61;101846.53;5034611;28;20487;-70
2021/06/03 06:57:39;;;;;;;3.30;2.30;;;;;;;20.17;52.95;101843.56;5034591;28;20440;-70
2021/06/03 07:00:08;;;;;;;3.50;2.50;;;;;;;20.22;53.23;101850.00;5034702;28;21069;-71
2021/06/03 07:02:34;;;;;;;2.77;2.27;;;;;;;20.23;53.17;101855.19;5034487;28;21010;-69
2021/06/03 07:05:00;;;;;;;2.63;1.80;;;;;;;20.33;52.02;101852.03;5034742;28;20439;-70
2021/06/03 07:07:27;;;;;;;4.30;2.00;;;;;;;20.46;51.70;101857.59;5034684;28;20443;-69
2021/06/03 07:09:53;;;;;;;4.50;2.90;;;;;;;20.53;52.47;101850.41;5034611;28;20471;-69
2021/06/03 07:12:19;;;;;;;6.77;2.57;;;;;;;20.59;50.88;101851.03;5034593;28;20470;-70
2021/06/03 07:14:45;;;;;;;1.97;1.83;;;;;;;20.66;51.24;101849.31;5034798;28;20483;-69
2021/06/03 07:17:11;;;;;;;3.03;2.10;;;;;;;20.77;50.72;101848.94;5034528;28;20454;-70
2021/06/03 07:19:37;;;;;;;2.37;1.73;;;;;;;20.77;51.62;101851.69;5033656;28;20478;-71
2021/06/03 07:22:06;;;;;;;2.33;1.83;;;;;;;20.81;50.70;101845.16;5034455;28;20944;-71
2021/06/03 07:24:34;;;;;;;7.20;2.43;;;;;;;20.94;50.00;101851.50;5034414;28;20443;-71
2021/06/03 07:27:00;;;;;;;2.50;2.00;;;;;;;21.08;50.78;101845.66;5034313;28;20450;-70
2021/06/03 07:29:26;;;;;;;7.37;2.67;;;;;;;21.16;51.00;101853.00;5034193;28;20464;-69
2021/06/03 07:31:52;;;;;;;3.43;1.97;;;;;;;21.25;49.75;101848.22;5034259;28;20447;-70
2021/06/03 07:34:18;;;;;;;3.90;1.83;;;;;;;21.31;49.10;101860.66;5034086;28;20566;-70
2021/06/03 07:36:44;;;;;;;4.27;2.40;;;;;;;21.33;48.95;101852.84;5033768;28;20964;-70
2021/06/03 07:39:10;;;;;;;4.97;2.67;;;;;;;21.43;49.08;101848.84;5033959;28;20458;-70
2021/06/03 07:41:37;;;;;;;3.30;2.10;;;;;;;21.55;48.68;101851.59;5034096;28;20948;-71
2021/06/03 07:44:04;;;;;;;3.30;2.33;;;;;;;21.62;48.93;101859.28;5034019;28;20569;-70
2021/06/03 07:46:30;;;;;;;2.37;2.17;;;;;;;21.68;48.86;101855.16;5033936;28;20445;-70
2021/06/03 07:48:56;;;;;;;2.67;2.10;;;;;;;21.84;47.75;101852.50;5033763;28;20451;-70
2021/06/03 07:51:22;;;;;;;2.67;2.03;;;;;;;21.95;47.36;101861.09;5033865;28;20443;-71
2021/06/03 07:53:48;;;;;;;1.73;1.20;;;;;;;22.06;47.68;101856.72;5033793;28;20542;-70
2021/06/03 07:56:15;;;;;;;3.07;2.33;;;;;;;22.10;47.65;101860.41;5033681;28;20479;-70
2021/06/03 07:58:42;;;;;;;2.10;1.90;;;;;;;22.12;47.55;101847.06;5033438;28;20458;-70
2021/06/03 08:01:08;;;;;;;3.93;2.80;;;;;;;22.13;47.47;101860.53;5033552;28;20474;-70
2021/06/03 08:03:34;;;;;;;3.33;2.00;;;;;;;22.20;45.58;101851.66;5033663;28;20447;-70
2021/06/03 08:06:00;;;;;;;3.20;2.10;;;;;;;22.24;46.90;101855.31;5033618;28;20446;-70
2021/06/03 08:08:26;;;;;;;2.27;1.80;;;;;;;22.33;46.39;101858.75;5033547;28;20447;-70
2021/06/03 08:10:52;;;;;;;1.87;1.70;;;;;;;22.40;45.13;101860.91;5033491;28;20495;-70
2021/06/03 08:13:18;;;;;;;2.47;2.07;;;;;;;22.41;45.02;101851.47;5033439;28;20439;-70
2021/06/03 08:15:46;;;;;;;2.23;2.03;;;;;;;22.40;45.70;101864.47;5033089;28;20840;-71
2021/06/03 08:18:14;;;;;;;8.20;2.00;;;;;;;22.49;44.34;101846.94;5033171;28;20866;-71
2021/06/03 08:20:43;;;;;;;4.70;1.70;;;;;;;22.59;44.96;101849.22;5033327;28;20463;-71
2021/06/03 08:23:11;;;;;;;2.50;1.70;;;;;;;22.63;45.15;101841.84;5033373;28;20497;-70
2021/06/03 08:25:37;;;;;;;4.37;1.83;;;;;;;22.69;45.69;101845.94;5033355;28;20452;-70
2021/06/03 08:28:04;;;;;;;2.00;1.50;;;;;;;22.71;44.67;101849.16;5033309;28;20466;-71
2021/06/03 08:30:31;;;;;;;4.90;2.33;;;;;;;22.72;44.69;101844.44;5032791;28;20863;-70
2021/06/03 08:32:58;;;;;;;12.13;2.20;;;;;;;22.83;44.98;101843.56;5033191;28;20454;-70
2021/06/03 08:35:25;;;;;;;2.90;1.87;;;;;;;22.86;44.13;101853.91;5033207;28;20482;-70
2021/06/03 08:37:53;;;;;;;2.80;1.77;;;;;;;22.92;43.40;101844.22;5033184;28;20443;-70
2021/06/03 08:40:23;;;;;;;2.40;2.13;;;;;;;22.99;44.68;101853.88;5039301;28;20442;-70
2021/06/03 08:42:50;;;;;;;2.20;1.70;;;;;;;23.01;43.13;101848.78;5033210;28;20427;-71
2021/06/03 08:45:17;;;;;;;3.80;2.20;;;;;;;23.01;43.67;101846.81;5032862;28;20435;-70
2021/06/03 08:47:43;;;;;;;3.10;1.97;;;;;;;23.09;43.42;101853.34;5033250;28;20443;-70
2021/06/03 08:50:12;;;;;;;3.03;1.80;;;;;;;23.19;44.15;101839.00;5032550;28;20879;-71
2021/06/03 08:52:38;;;;;;;2.00;1.70;;;;;;;23.32;43.73;101836.94;5033070;28;20435;-71
2021/06/03 08:55:07;;;;;;;2.47;2.10;;;;;;;23.38;44.13;101841.84;5032920;28;20533;-69
2021/06/03 08:57:33;;;;;;;3.37;2.10;;;;;;;23.47;45.22;101833.38;5032996;28;20451;-69
2021/06/03 08:59:59;;;;;;;2.00;1.80;;;;;;;23.53;44.49;101836.66;5032873;28;20528;-69
2021/06/03 09:02:24;;;;;;;3.30;2.03;;;;;;;23.56;42.97;101842.28;5032930;28;20632;-69
2021/06/03 09:04:50;;;;;;;7.50;2.37;;;;;;;23.56;43.26;101842.28;5032893;28;20870;-69
2021/06/03 09:07:31;;;;;;;2.23;1.83;;;;;;;23.68;44.65;101838.63;5032919;28;20450;-69
2021/06/03 09:10:18;;;;;;;3.63;2.10;;;;;;;23.72;42.66;101831.19;5032795;28;20470;-72
2021/06/03 09:13:06;;;;;;;2.33;2.00;;;;;;;23.82;42.83;101846.47;5032513;28;20439;-71
2021/06/03 09:15:32;;;;;;;2.67;1.93;;;;;;;23.87;42.19;101846.97;5032875;28;20474;-71
2021/06/03 09:17:58;;;;;;;2.13;1.80;;;;;;;23.94;43.84;101837.22;5032847;28;20443;-71
2021/06/03 09:20:25;;;;;;;2.30;2.10;;;;;;;24.00;43.23;101833.03;5032739;28;20467;-72
2021/06/03 09:22:53;;;;;;;2.37;1.70;;;;;;;24.01;43.39;101837.38;5032867;28;20447;-71
2021/06/03 09:25:46;;;;;;;2.47;2.27;;;;;;;24.09;42.47;101833.63;5032541;28;20928;-69
2021/06/03 09:28:22;;;;;;;5.13;2.40;;;;;;;24.12;41.80;101838.41;4986011;28;20455;-71
2021/06/03 09:30:57;;;;;;;3.30;2.03;;;;;;;24.18;41.80;101845.28;5032674;28;20521;-71
2021/06/03 09:33:54;;;;;;;2.03;1.80;;;;;;;24.27;41.88;101837.56;5032765;28;20442;-71
2021/06/03 09:36:28;;;;;;;1.73;1.60;;;;;;;24.43;41.38;101840.28;5032632;28;20467;-71
2021/06/03 09:39:02;;;;;;;2.50;1.90;;;;;;;24.58;40.84;101831.09;5033965;28;20497;-71
2021/06/03 09:41:29;;;;;;;3.40;2.23;;;;;;;24.71;41.54;101828.16;5032880;28;20435;-71
2021/06/03 09:44:19;;;;;;;3.37;1.97;;;;;;;24.67;39.98;101823.34;5036315;28;20454;-71
2021/06/03 09:46:47;;;;;;;2.93;1.90;;;;;;;24.81;38.20;101825.56;5036027;28;20912;-69
2021/06/03 09:49:28;;;;;;;2.90;2.23;;;;;;;24.78;42.06;101823.53;5035947;28;20474;-71
2021/06/03 09:51:56;;;;;;;2.50;2.20;;;;;;;24.84;41.83;101822.06;5036223;28;20419;-71
2021/06/03 09:54:23;;;;;;;1.80;1.70;;;;;;;24.97;38.59;101821.88;5036048;28;20447;-71
2021/06/03 09:56:53;;;;;;;1.70;1.60;;;;;;;25.03;39.62;101809.31;5035994;28;20490;-71
2021/06/03 09:59:22;;;;;;;1.30;1.20;;;;;;;25.14;39.05;101807.53;5035916;28;20470;-69
2021/06/03 10:01:55;;;;;;;2.43;2.23;;;;;;;25.13;39.72;101808.72;5036051;28;20443;-71
2021/06/03 10:04:29;;;;;;;3.40;2.47;;;;;;;25.20;39.88;101814.41;5035960;28;20435;-70
2021/06/03 10:06:58;;;;;;;6.73;2.00;;;;;;;25.33;39.02;101817.78;5035893;28;20485;-71
2021/06/03 10:09:42;;;;;;;1.73;1.60;;;;;;;25.29;37.86;101819.69;5035589;28;20462;-72
2021/06/03 10:12:09;;;;;;;2.93;2.13;;;;;;;25.38;37.22;101811.91;5035769;28;20435;-70
2021/06/03 10:14:37;;;;;;;2.83;2.20;;;;;;;25.40;38.06;101807.56;5035761;28;20483;-73
2021/06/03 10:17:15;;;;;;;2.00;1.80;;;;;;;25.46;37.74;101818.38;5035564;28;20446;-68
2021/06/03 10:19:42;;;;;;;5.70;1.70;;;;;;;25.45;38.53;101811.19;5035249;28;20854;-69
2021/06/03 10:22:18;;;;;;;3.60;1.93;;;;;;;25.46;38.29;101818.38;5035255;28;20447;-68
2021/06/03 10:24:53;;;;;;;1.70;1.60;;;;;;;25.48;38.03;101802.13;5035589;28;20431;-71
2021/06/03 10:27:21;;;;;;;1.80;1.53;;;;;;;25.68;37.70;101809.19;5035550;28;20427;-71
2021/06/03 10:29:48;;;;;;;2.67;2.03;;;;;;;25.77;37.49;101820.84;5035342;28;20463;-71
2021/06/03 10:32:15;;;;;;;2.10;1.60;;;;;;;25.79;37.22;101812.94;5035402;28;20782;-69
2021/06/03 10:34:43;;;;;;;1.90;1.70;;;;;;;25.85;36.91;101803.13;5035281;28;20447;-70
2021/06/03 10:37:11;;;;;;;2.10;1.77;;;;;;;25.85;36.48;101810.63;5034998;28;20949;-69
2021/06/03 10:39:39;;;;;;;2.33;1.73;;;;;;;25.99;37.55;101812.81;5041901;28;20474;-70
2021/06/03 10:42:07;;;;;;;1.50;1.40;;;;;;;26.07;36.72;101803.38;5035211;28;20439;-68
2021/06/03 10:44:35;;;;;;;4.20;1.70;;;;;;;26.10;35.01;101805.41;5035151;28;20439;-70
2021/06/03 10:47:01;;;;;;;1.93;1.73;;;;;;;26.26;36.19;101805.22;5035081;28;20435;-69
2021/06/03 10:49:30;;;;;;;2.00;1.40;;;;;;;26.52;35.66;101807.09;5034787;28;20483;-69
2021/06/03 10:51:58;;;;;;;1.90;1.80;;;;;;;26.72;35.83;101800.16;5034740;28;20966;-69
2021/06/03 10:54:55;;;;;;;2.70;1.83;;;;;;;26.72;37.36;101799.38;5033815;28;20443;-69
2021/06/03 10:57:25;;;;;;;2.83;2.20;;;;;;;26.82;35.76;101795.88;4954600;29;20423;-68
2021/06/03 10:59:52;;;;;;;2.00;1.90;;;;;;;26.89;36.12;101798.75;5018050;28;20845;-71
2021/06/03 11:02:19;;;;;;;2.03;1.83;;;;;;;27.02;35.36;101805.63;5034835;28;20542;-69
2021/06/03 11:04:45;;;;;;;2.07;1.77;;;;;;;27.17;36.50;101790.66;5034804;28;20447;-69
2021/06/03 11:07:13;;;;;;;1.57;1.47;;;;;;;27.34;35.99;101803.13;5034797;28;20443;-69
2021/06/03 11:09:42;;;;;;;2.67;1.97;;;;;;;27.48;34.65;101805.19;5034260;28;20482;-69
2021/06/03 11:12:19;;;;;;;2.07;1.80;;;;;;;27.70;34.76;101792.19;5034635;28;20447;-69
2021/06/03 11:15:09;;;;;;;1.60;1.50;;;;;;;28.32;34.43;101797.66;5034594;28;20481;-70
2021/06/03 11:17:54;;;;;;;1.63;1.47;;;;;;;29.27;33.28;101797.44;5034602;28;20477;-69
2021/06/03 11:20:44;;;;;;;2.97;2.07;;;;;;;30.30;32.86;101802.75;5034370;28;20478;-69
2021/06/03 11:23:55;;;;;;;2.83;1.50;;;;;;;31.19;29.21;101804.13;5034594;28;20437;-70
2021/06/03 11:26:50;;;;;;;2.63;1.60;;;;;;;32.11;29.19;101798.78;5034517;28;20788;-69
2021/06/03 11:29:18;;;;;;;1.80;1.40;;;;;;;32.91;28.52;101791.63;5034313;28;20606;-69
2021/06/03 11:31:48;;;;;;;1.83;1.70;;;;;;;33.46;27.79;101793.09;5034324;28;20439;-69